PWSweather.com
Personal Weather Stations
Station Observations
LANJARON
Lanjaron, GranadaES 18420

LanjaronGranadaES 18420

Lat: 36.919, Lon: -3.469

Elevation: 2130

Station Type: Weatherflow Sky/Air

https://www.spanishhighs.co.uk/meteotemplate/

Latest ConditionsUpdated 7:05:00 PM GMT+01:01 Thursday, May 23, 2019
Currently Today's Max Today's Min Today's Average
Temperature 80.9°F27.2°C 85.0°F29.4°C 56.0°F13.3°C 68.4°F20.2°C
Dew Point 44.1°F6.7°C 48.8°F9.3°C 42.2°F5.7°C 45.1°F7.3°C
Winds 1.7 mph SE2.7 kmh SE 4.4 mph -7.1 kmh - - 1.7 mph 2.7 kmh
Wind Gusts 5.6 mph9.0 kmh 13.1 mph21.1 kmh - -
Humidity 27% 60% 26% 46%
Pressure 30.07 in1018.3 mb 30.28 in1025.4 mb 30.05 in1017.6 mb -
Hour Temp Dew Point Humidity Winds Wind Gusts Pressure Precip Precip Rate Daily Precip Total
07:05 PM 80.9°F27.2°C 44.1°F6.7°C 27% 1.7 mph SE2.7 kmh SE 5.6 mph9.0 kmh 30.07 in1018.3 mb 0.00 in0.0 mm 0.00 in0.0 mm 0.00 in0.0 mm
07:00 PM 81.7°F27.6°C 44.0°F6.7°C 27% 2.4 mph SE3.9 kmh SE 6.2 mph10.0 kmh 30.06 in1017.9 mb 0.00 in0.0 mm 0.00 in0.0 mm 0.00 in0.0 mm
06:55 PM 82.1°F27.8°C 44.6°F7.0°C 27% 1.5 mph SE2.4 kmh SE 6.0 mph9.7 kmh 30.06 in1017.9 mb 0.00 in0.0 mm 0.00 in0.0 mm 0.00 in0.0 mm
06:50 PM 82.1°F27.8°C 44.2°F6.8°C 26% 1.7 mph ESE2.7 kmh ESE 4.4 mph7.1 kmh 30.06 in1017.9 mb 0.00 in0.0 mm 0.00 in0.0 mm 0.00 in0.0 mm
06:45 PM 82.0°F27.8°C 43.9°F6.6°C 26% 2.5 mph ESE4.0 kmh ESE 7.0 mph11.3 kmh 30.06 in1017.9 mb 0.00 in0.0 mm 0.00 in0.0 mm 0.00 in0.0 mm
06:40 PM 82.3°F27.9°C 44.4°F6.9°C 26% 2.0 mph E3.2 kmh E 5.9 mph9.5 kmh 30.06 in1017.9 mb 0.00 in0.0 mm 0.00 in0.0 mm 0.00 in0.0 mm
06:35 PM 83.0°F28.3°C 45.3°F7.4°C 27% 2.0 mph SE3.2 kmh SE 6.5 mph10.5 kmh 30.06 in1017.9 mb 0.00 in0.0 mm 0.00 in0.0 mm 0.00 in0.0 mm
06:30 PM 83.7°F28.7°C 45.1°F7.3°C 26% 2.3 mph SE3.7 kmh SE 6.2 mph10.0 kmh 30.05 in1017.6 mb 0.00 in0.0 mm 0.00 in0.0 mm 0.00 in0.0 mm
06:25 PM 84.1°F28.9°C 46.0°F7.8°C 26% 2.6 mph ESE4.2 kmh ESE 6.9 mph11.1 kmh 30.05 in1017.6 mb 0.00 in0.0 mm 0.00 in0.0 mm 0.00 in0.0 mm
06:20 PM 83.9°F28.8°C 45.7°F7.6°C 26% 2.1 mph SE3.4 kmh SE 5.4 mph8.7 kmh 30.05 in1017.6 mb 0.00 in0.0 mm 0.00 in0.0 mm 0.00 in0.0 mm
06:15 PM 83.8°F28.8°C 46.2°F7.9°C 27% 2.0 mph SE3.2 kmh SE 5.2 mph8.4 kmh 30.05 in1017.6 mb 0.00 in0.0 mm 0.00 in0.0 mm 0.00 in0.0 mm
06:10 PM 83.4°F28.6°C 45.1°F7.3°C 26% 2.3 mph SE3.7 kmh SE 7.8 mph12.6 kmh 30.06 in1017.9 mb 0.00 in0.0 mm 0.00 in0.0 mm 0.00 in0.0 mm
06:05 PM 84.2°F29.0°C 46.3°F7.9°C 27% 2.8 mph ESE4.5 kmh ESE 6.5 mph10.5 kmh 30.05 in1017.6 mb 0.00 in0.0 mm 0.00 in0.0 mm 0.00 in0.0 mm
06:00 PM 83.3°F28.5°C 45.8°F7.7°C 27% 2.0 mph SSE3.2 kmh SSE 6.1 mph9.8 kmh 30.06 in1017.9 mb 0.00 in0.0 mm 0.00 in0.0 mm 0.00 in0.0 mm
05:55 PM 83.2°F28.4°C 45.9°F7.7°C 27% 3.2 mph ESE5.1 kmh ESE 7.4 mph11.9 kmh 30.06 in1017.9 mb 0.00 in0.0 mm 0.00 in0.0 mm 0.00 in0.0 mm
05:50 PM 82.4°F28.0°C 44.8°F7.1°C 27% 1.2 mph NE1.9 kmh NE 5.0 mph8.0 kmh 30.06 in1017.9 mb 0.00 in0.0 mm 0.00 in0.0 mm 0.00 in0.0 mm
05:45 PM 83.0°F28.3°C 46.3°F7.9°C 28% 2.7 mph E4.3 kmh E 7.2 mph11.6 kmh 30.06 in1017.9 mb 0.00 in0.0 mm 0.00 in0.0 mm 0.00 in0.0 mm
05:40 PM 81.8°F27.7°C 45.3°F7.4°C 28% 0.8 mph SSW1.3 kmh SSW 3.1 mph5.0 kmh 30.07 in1018.3 mb 0.00 in0.0 mm 0.00 in0.0 mm 0.00 in0.0 mm
05:35 PM 82.2°F27.9°C 45.6°F7.6°C 28% 2.9 mph ENE4.7 kmh ENE 9.0 mph14.5 kmh 30.07 in1018.3 mb 0.00 in0.0 mm 0.00 in0.0 mm 0.00 in0.0 mm
05:30 PM 82.1°F27.8°C 45.8°F7.7°C 28% 2.3 mph E3.7 kmh E 6.9 mph11.1 kmh 30.07 in1018.3 mb 0.00 in0.0 mm 0.00 in0.0 mm 0.00 in0.0 mm
05:25 PM 81.6°F27.6°C 44.9°F7.2°C 28% 2.1 mph E3.4 kmh E 7.6 mph12.2 kmh 30.08 in1018.6 mb 0.00 in0.0 mm 0.00 in0.0 mm 0.00 in0.0 mm
05:20 PM 82.4°F28.0°C 45.0°F7.2°C 27% 2.8 mph N4.5 kmh N 9.6 mph15.4 kmh 30.07 in1018.3 mb 0.00 in0.0 mm 0.00 in0.0 mm 0.00 in0.0 mm
05:15 PM 83.5°F28.6°C 45.6°F7.6°C 27% 3.0 mph E4.8 kmh E 11.2 mph18.0 kmh 30.07 in1018.3 mb 0.00 in0.0 mm 0.00 in0.0 mm 0.00 in0.0 mm
05:10 PM 83.9°F28.8°C 46.9°F8.3°C 28% 2.6 mph E4.2 kmh E 6.1 mph9.8 kmh 30.07 in1018.3 mb 0.00 in0.0 mm 0.00 in0.0 mm 0.00 in0.0 mm
05:05 PM 83.6°F28.7°C 46.1°F7.8°C 27% 2.7 mph E4.3 kmh E 6.1 mph9.8 kmh 30.07 in1018.3 mb 0.00 in0.0 mm 0.00 in0.0 mm 0.00 in0.0 mm
05:00 PM 84.8°F29.3°C 46.6°F8.1°C 27% 3.3 mph E5.3 kmh E 9.9 mph15.9 kmh 30.06 in1017.9 mb 0.00 in0.0 mm 0.00 in0.0 mm 0.00 in0.0 mm
04:55 PM 85.0°F29.4°C 47.6°F8.7°C 27% 3.2 mph E5.1 kmh E 9.8 mph15.8 kmh 30.06 in1017.9 mb 0.00 in0.0 mm 0.00 in0.0 mm 0.00 in0.0 mm
04:50 PM 84.8°F29.3°C 47.8°F8.8°C 28% 2.3 mph E3.7 kmh E 6.6 mph10.6 kmh 30.07 in1018.3 mb 0.00 in0.0 mm 0.00 in0.0 mm 0.00 in0.0 mm
04:45 PM 84.2°F29.0°C 48.2°F9.0°C 29% 2.6 mph E4.2 kmh E 6.7 mph10.8 kmh 30.07 in1018.3 mb 0.00 in0.0 mm 0.00 in0.0 mm 0.00 in0.0 mm
04:40 PM 84.0°F28.9°C 47.4°F8.6°C 28% 2.1 mph ENE3.4 kmh ENE 5.6 mph9.0 kmh 30.07 in1018.3 mb 0.00 in0.0 mm 0.00 in0.0 mm 0.00 in0.0 mm
04:35 PM 83.9°F28.8°C 47.3°F8.5°C 28% 1.8 mph E2.9 kmh E 5.2 mph8.4 kmh 30.07 in1018.3 mb 0.00 in0.0 mm 0.00 in0.0 mm 0.00 in0.0 mm
04:30 PM 83.7°F28.7°C 46.7°F8.2°C 28% 3.0 mph SE4.8 kmh SE 10.9 mph17.5 kmh 30.08 in1018.6 mb 0.00 in0.0 mm 0.00 in0.0 mm 0.00 in0.0 mm
04:25 PM 83.5°F28.6°C 46.9°F8.3°C 28% 2.5 mph E4.0 kmh E 8.6 mph13.8 kmh 30.08 in1018.6 mb 0.00 in0.0 mm 0.00 in0.0 mm 0.00 in0.0 mm
04:20 PM 82.9°F28.3°C 47.4°F8.6°C 29% 2.5 mph E4.0 kmh E 6.4 mph10.3 kmh 30.08 in1018.6 mb 0.00 in0.0 mm 0.00 in0.0 mm 0.00 in0.0 mm
04:15 PM 82.8°F28.2°C 46.3°F7.9°C 28% 2.3 mph ENE3.7 kmh ENE 6.8 mph10.9 kmh 30.08 in1018.6 mb 0.00 in0.0 mm 0.00 in0.0 mm 0.00 in0.0 mm
04:10 PM 83.4°F28.6°C 47.6°F8.7°C 29% 3.4 mph SE5.5 kmh SE 7.3 mph11.7 kmh 30.08 in1018.6 mb 0.00 in0.0 mm 0.00 in0.0 mm 0.00 in0.0 mm
04:05 PM 83.5°F28.6°C 48.3°F9.1°C 29% 3.3 mph ESE5.3 kmh ESE 8.9 mph14.3 kmh 30.08 in1018.6 mb 0.00 in0.0 mm 0.00 in0.0 mm 0.00 in0.0 mm
04:00 PM 83.5°F28.6°C 48.0°F8.9°C 29% 3.7 mph SE6.0 kmh SE 9.4 mph15.1 kmh 30.08 in1018.6 mb 0.00 in0.0 mm 0.00 in0.0 mm 0.00 in0.0 mm
03:55 PM 83.4°F28.6°C 48.5°F9.2°C 30% 3.4 mph ESE5.5 kmh ESE 9.5 mph15.3 kmh 30.08 in1018.6 mb 0.00 in0.0 mm 0.00 in0.0 mm 0.00 in0.0 mm
03:50 PM 83.0°F28.3°C 47.6°F8.7°C 29% 2.9 mph E4.7 kmh E 7.1 mph11.4 kmh 30.09 in1019.0 mb 0.00 in0.0 mm 0.00 in0.0 mm 0.00 in0.0 mm
03:45 PM 83.0°F28.3°C 48.5°F9.2°C 30% 2.5 mph E4.0 kmh E 7.4 mph11.9 kmh 30.09 in1019.0 mb 0.00 in0.0 mm 0.00 in0.0 mm 0.00 in0.0 mm
03:40 PM 82.2°F27.9°C 48.0°F8.9°C 30% 2.3 mph SE3.7 kmh SE 6.0 mph9.7 kmh 30.09 in1019.0 mb 0.00 in0.0 mm 0.00 in0.0 mm 0.00 in0.0 mm
03:35 PM 82.4°F28.0°C 47.0°F8.3°C 29% 2.4 mph ENE3.9 kmh ENE 7.3 mph11.7 kmh 30.09 in1019.0 mb 0.00 in0.0 mm 0.00 in0.0 mm 0.00 in0.0 mm
03:30 PM 82.5°F28.1°C 48.6°F9.2°C 31% 2.4 mph ESE3.9 kmh ESE 8.6 mph13.8 kmh 30.09 in1019.0 mb 0.00 in0.0 mm 0.00 in0.0 mm 0.00 in0.0 mm
03:25 PM 81.7°F27.6°C 48.1°F8.9°C 31% 2.1 mph E3.4 kmh E 7.0 mph11.3 kmh 30.09 in1019.0 mb 0.00 in0.0 mm 0.00 in0.0 mm 0.00 in0.0 mm
03:20 PM 81.1°F27.3°C 47.5°F8.6°C 31% 1.7 mph E2.7 kmh E 5.5 mph8.9 kmh 30.10 in1019.3 mb 0.00 in0.0 mm 0.00 in0.0 mm 0.00 in0.0 mm
03:15 PM -- -- - 3.0 mph NE4.8 kmh NE 4.5 mph7.2 kmh -- 0.00 in0.0 mm 0.00 in0.0 mm 0.00 in0.0 mm
03:10 PM 81.4°F27.4°C 47.8°F8.8°C 31% 2.5 mph N4.0 kmh N 7.9 mph12.7 kmh 30.10 in1019.3 mb 0.00 in0.0 mm 0.00 in0.0 mm 0.00 in0.0 mm
03:05 PM 82.0°F27.8°C 48.6°F9.2°C 31% 2.8 mph E4.5 kmh E 9.4 mph15.1 kmh 30.10 in1019.3 mb 0.00 in0.0 mm 0.00 in0.0 mm 0.00 in0.0 mm
02:55 PM -- -- - - N N -- -- 0.00 in0.0 mm 0.00 in0.0 mm 0.00 in0.0 mm
02:50 PM 80.6°F27.0°C 48.1°F8.9°C 32% 1.7 mph E2.7 kmh E 8.4 mph13.5 kmh 30.11 in1019.6 mb 0.00 in0.0 mm 0.00 in0.0 mm 0.00 in0.0 mm
02:45 PM 80.1°F26.7°C 48.8°F9.3°C 34% 3.1 mph E5.0 kmh E 9.0 mph14.5 kmh 30.11 in1019.6 mb 0.00 in0.0 mm 0.00 in0.0 mm 0.00 in0.0 mm
02:40 PM 79.4°F26.3°C 47.8°F8.8°C 33% 2.0 mph SE3.2 kmh SE 4.1 mph6.6 kmh 30.11 in1019.6 mb 0.00 in0.0 mm 0.00 in0.0 mm 0.00 in0.0 mm
02:35 PM 79.1°F26.2°C 48.0°F8.9°C 34% 3.0 mph ENE4.8 kmh ENE 7.8 mph12.6 kmh 30.12 in1020.0 mb 0.00 in0.0 mm 0.00 in0.0 mm 0.00 in0.0 mm
02:30 PM 78.9°F26.1°C 47.6°F8.7°C 33% 2.4 mph E3.9 kmh E 7.7 mph12.4 kmh 30.12 in1020.0 mb 0.00 in0.0 mm 0.00 in0.0 mm 0.00 in0.0 mm
02:25 PM 79.4°F26.3°C 48.4°F9.1°C 34% 2.9 mph E4.7 kmh E 7.7 mph12.4 kmh 30.12 in1020.0 mb 0.00 in0.0 mm 0.00 in0.0 mm 0.00 in0.0 mm
02:20 PM 78.8°F26.0°C 48.0°F8.9°C 34% 3.0 mph SE4.8 kmh SE 6.7 mph10.8 kmh 30.12 in1020.0 mb 0.00 in0.0 mm 0.00 in0.0 mm 0.00 in0.0 mm
02:15 PM 78.2°F25.7°C 47.2°F8.4°C 34% 3.4 mph E5.5 kmh E 7.4 mph11.9 kmh 30.12 in1020.0 mb 0.00 in0.0 mm 0.00 in0.0 mm 0.00 in0.0 mm
02:10 PM 78.0°F25.6°C 47.4°F8.6°C 34% 3.7 mph E6.0 kmh E 13.1 mph21.1 kmh 30.12 in1020.0 mb 0.00 in0.0 mm 0.00 in0.0 mm 0.00 in0.0 mm
02:05 PM 77.6°F25.3°C 47.0°F8.3°C 34% 4.0 mph ESE6.4 kmh ESE 10.0 mph16.1 kmh 30.13 in1020.3 mb 0.00 in0.0 mm 0.00 in0.0 mm 0.00 in0.0 mm
02:00 PM 77.4°F25.2°C 46.3°F7.9°C 33% 4.0 mph E6.4 kmh E 12.7 mph20.4 kmh 30.13 in1020.3 mb 0.00 in0.0 mm 0.00 in0.0 mm 0.00 in0.0 mm
01:55 PM 77.2°F25.1°C 46.5°F8.1°C 34% 4.2 mph ESE6.8 kmh ESE 11.0 mph17.7 kmh 30.13 in1020.3 mb 0.00 in0.0 mm 0.00 in0.0 mm 0.00 in0.0 mm
01:50 PM 77.1°F25.1°C 45.1°F7.3°C 32% 3.3 mph ENE5.3 kmh ENE 10.1 mph16.3 kmh 30.14 in1020.7 mb 0.00 in0.0 mm 0.00 in0.0 mm 0.00 in0.0 mm
01:45 PM 77.4°F25.2°C 46.0°F7.8°C 33% 3.6 mph E5.8 kmh E 10.3 mph16.6 kmh 30.14 in1020.7 mb 0.00 in0.0 mm 0.00 in0.0 mm 0.00 in0.0 mm
01:40 PM 77.1°F25.1°C 46.2°F7.9°C 34% 4.3 mph ESE6.9 kmh ESE 9.0 mph14.5 kmh 30.14 in1020.7 mb 0.00 in0.0 mm 0.00 in0.0 mm 0.00 in0.0 mm
01:35 PM 76.4°F24.7°C 45.3°F7.4°C 33% 3.6 mph SE5.8 kmh SE 9.2 mph14.8 kmh 30.14 in1020.7 mb 0.00 in0.0 mm 0.00 in0.0 mm 0.00 in0.0 mm
01:30 PM 76.6°F24.8°C 44.4°F6.9°C 32% 3.4 mph NE5.5 kmh NE 11.3 mph18.2 kmh 30.14 in1020.7 mb 0.00 in0.0 mm 0.00 in0.0 mm 0.00 in0.0 mm
01:25 PM 76.8°F24.9°C 45.6°F7.6°C 33% 2.6 mph E4.2 kmh E 7.1 mph11.4 kmh 30.14 in1020.7 mb 0.00 in0.0 mm 0.00 in0.0 mm 0.00 in0.0 mm
01:20 PM 77.0°F25.0°C 45.9°F7.7°C 33% 3.0 mph NNE4.8 kmh NNE 7.1 mph11.4 kmh 30.14 in1020.7 mb 0.00 in0.0 mm 0.00 in0.0 mm 0.00 in0.0 mm
01:15 PM 77.1°F25.1°C 45.1°F7.3°C 32% 3.6 mph ESE5.8 kmh ESE 8.3 mph13.4 kmh 30.14 in1020.7 mb 0.00 in0.0 mm 0.00 in0.0 mm 0.00 in0.0 mm
01:10 PM 77.4°F25.2°C 45.8°F7.7°C 33% 3.3 mph E5.3 kmh E 9.0 mph14.5 kmh 30.14 in1020.7 mb 0.00 in0.0 mm 0.00 in0.0 mm 0.00 in0.0 mm
01:05 PM 77.6°F25.3°C 46.6°F8.1°C 34% 4.4 mph ESE7.1 kmh ESE 9.4 mph15.1 kmh 30.14 in1020.7 mb 0.00 in0.0 mm 0.00 in0.0 mm 0.00 in0.0 mm
01:00 PM 77.3°F25.2°C 46.6°F8.1°C 34% 3.7 mph E6.0 kmh E 11.3 mph18.2 kmh 30.14 in1020.7 mb 0.00 in0.0 mm 0.00 in0.0 mm 0.00 in0.0 mm
12:55 PM 77.1°F25.1°C 46.6°F8.1°C 34% 3.8 mph ENE6.1 kmh ENE 8.4 mph13.5 kmh 30.14 in1020.7 mb 0.00 in0.0 mm 0.00 in0.0 mm 0.00 in0.0 mm
12:50 PM 76.8°F24.9°C 46.1°F7.8°C 34% 2.4 mph E3.9 kmh E 6.1 mph9.8 kmh 30.14 in1020.7 mb 0.00 in0.0 mm 0.00 in0.0 mm 0.00 in0.0 mm
12:45 PM 77.4°F25.2°C 46.8°F8.2°C 34% 2.9 mph ESE4.7 kmh ESE 9.9 mph15.9 kmh 30.14 in1020.7 mb 0.00 in0.0 mm 0.00 in0.0 mm 0.00 in0.0 mm
12:40 PM 77.2°F25.1°C 46.8°F8.2°C 34% 3.5 mph SE5.6 kmh SE 10.4 mph16.7 kmh 30.14 in1020.7 mb 0.00 in0.0 mm 0.00 in0.0 mm 0.00 in0.0 mm
12:35 PM 77.3°F25.2°C 46.9°F8.3°C 34% 4.2 mph SE6.8 kmh SE 11.0 mph17.7 kmh 30.14 in1020.7 mb 0.00 in0.0 mm 0.00 in0.0 mm 0.00 in0.0 mm
12:30 PM 77.2°F25.1°C 47.2°F8.4°C 35% 3.5 mph ESE5.6 kmh ESE 7.8 mph12.6 kmh 30.14 in1020.7 mb 0.00 in0.0 mm 0.00 in0.0 mm 0.00 in0.0 mm
12:25 PM 76.9°F24.9°C 46.6°F8.1°C 34% 4.1 mph SE6.6 kmh SE 10.0 mph16.1 kmh 30.14 in1020.7 mb 0.00 in0.0 mm 0.00 in0.0 mm 0.00 in0.0 mm
12:20 PM 76.7°F24.8°C 46.8°F8.2°C 35% 3.0 mph ESE4.8 kmh ESE 8.1 mph13.0 kmh 30.14 in1020.7 mb 0.00 in0.0 mm 0.00 in0.0 mm 0.00 in0.0 mm
12:15 PM 76.4°F24.7°C 46.4°F8.0°C 35% 3.4 mph ESE5.5 kmh ESE 8.4 mph13.5 kmh 30.15 in1021.0 mb 0.00 in0.0 mm 0.00 in0.0 mm 0.00 in0.0 mm
12:10 PM 76.4°F24.7°C 46.5°F8.1°C 35% 3.8 mph ESE6.1 kmh ESE 10.0 mph16.1 kmh 30.15 in1021.0 mb 0.00 in0.0 mm 0.00 in0.0 mm 0.00 in0.0 mm
12:05 PM 76.1°F24.5°C 47.0°F8.3°C 36% 3.5 mph ESE5.6 kmh ESE 8.3 mph13.4 kmh 30.15 in1021.0 mb 0.00 in0.0 mm 0.00 in0.0 mm 0.00 in0.0 mm
12:00 PM 75.9°F24.4°C 47.1°F8.4°C 36% 2.6 mph E4.2 kmh E 10.0 mph16.1 kmh 30.15 in1021.0 mb 0.00 in0.0 mm 0.00 in0.0 mm 0.00 in0.0 mm
11:55 AM 75.5°F24.2°C 45.9°F7.7°C 35% 2.6 mph E4.2 kmh E 6.8 mph10.9 kmh 30.15 in1021.0 mb 0.00 in0.0 mm 0.00 in0.0 mm 0.00 in0.0 mm
11:50 AM 75.5°F24.2°C 46.8°F8.2°C 36% 3.4 mph E5.5 kmh E 9.6 mph15.4 kmh 30.15 in1021.0 mb 0.00 in0.0 mm 0.00 in0.0 mm 0.00 in0.0 mm
11:45 AM 75.3°F24.1°C 47.2°F8.4°C 37% 3.5 mph ESE5.6 kmh ESE 9.1 mph14.6 kmh 30.15 in1021.0 mb 0.00 in0.0 mm 0.00 in0.0 mm 0.00 in0.0 mm
11:40 AM 75.5°F24.2°C 47.4°F8.6°C 37% 2.7 mph NE4.3 kmh NE 8.3 mph13.4 kmh 30.15 in1021.0 mb 0.00 in0.0 mm 0.00 in0.0 mm 0.00 in0.0 mm
11:35 AM 75.6°F24.2°C 47.6°F8.7°C 37% 2.8 mph SE4.5 kmh SE 10.2 mph16.4 kmh 30.16 in1021.3 mb 0.00 in0.0 mm 0.00 in0.0 mm 0.00 in0.0 mm
11:30 AM 75.4°F24.1°C 47.6°F8.7°C 37% 3.2 mph ESE5.1 kmh ESE 9.3 mph15.0 kmh 30.16 in1021.3 mb 0.00 in0.0 mm 0.00 in0.0 mm 0.00 in0.0 mm
11:25 AM 75.0°F23.9°C 47.3°F8.5°C 38% 2.7 mph SE4.3 kmh SE 7.5 mph12.1 kmh 30.16 in1021.3 mb 0.00 in0.0 mm 0.00 in0.0 mm 0.00 in0.0 mm
11:20 AM 74.9°F23.8°C 47.4°F8.6°C 38% 2.4 mph E3.9 kmh E 9.5 mph15.3 kmh 30.16 in1021.3 mb 0.00 in0.0 mm 0.00 in0.0 mm 0.00 in0.0 mm
11:15 AM 74.6°F23.7°C 48.0°F8.9°C 39% 3.5 mph SE5.6 kmh SE 8.8 mph14.2 kmh 30.16 in1021.3 mb 0.00 in0.0 mm 0.00 in0.0 mm 0.00 in0.0 mm
11:10 AM 74.3°F23.5°C 47.3°F8.5°C 38% 3.9 mph ESE6.3 kmh ESE 8.4 mph13.5 kmh 30.17 in1021.7 mb 0.00 in0.0 mm 0.00 in0.0 mm 0.00 in0.0 mm
11:05 AM 74.0°F23.3°C 47.7°F8.7°C 39% 2.3 mph E3.7 kmh E 8.8 mph14.2 kmh 30.17 in1021.7 mb 0.00 in0.0 mm 0.00 in0.0 mm 0.00 in0.0 mm
11:00 AM 73.7°F23.2°C 47.6°F8.7°C 40% 1.9 mph ESE3.1 kmh ESE 5.9 mph9.5 kmh 30.17 in1021.7 mb 0.00 in0.0 mm 0.00 in0.0 mm 0.00 in0.0 mm
10:55 AM 73.7°F23.2°C 48.0°F8.9°C 40% 2.4 mph E3.9 kmh E 8.7 mph14.0 kmh 30.17 in1021.7 mb 0.00 in0.0 mm 0.00 in0.0 mm 0.00 in0.0 mm
10:50 AM 73.3°F22.9°C 47.8°F8.8°C 40% 2.5 mph ESE4.0 kmh ESE 8.7 mph14.0 kmh 30.17 in1021.7 mb 0.00 in0.0 mm 0.00 in0.0 mm 0.00 in0.0 mm
10:45 AM 72.8°F22.7°C 47.6°F8.7°C 41% 2.5 mph SE4.0 kmh SE 6.8 mph10.9 kmh 30.18 in1022.0 mb 0.00 in0.0 mm 0.00 in0.0 mm 0.00 in0.0 mm
10:40 AM 72.8°F22.7°C 47.4°F8.6°C 41% 1.8 mph NE2.9 kmh NE 5.7 mph9.2 kmh 30.18 in1022.0 mb 0.00 in0.0 mm 0.00 in0.0 mm 0.00 in0.0 mm
10:35 AM 72.7°F22.6°C 47.5°F8.6°C 41% 2.2 mph E3.5 kmh E 8.7 mph14.0 kmh 30.18 in1022.0 mb 0.00 in0.0 mm 0.00 in0.0 mm 0.00 in0.0 mm
10:30 AM 72.6°F22.6°C 46.6°F8.1°C 40% 1.2 mph N1.9 kmh N 5.4 mph8.7 kmh 30.18 in1022.0 mb 0.00 in0.0 mm 0.00 in0.0 mm 0.00 in0.0 mm
10:25 AM 72.8°F22.7°C 47.2°F8.4°C 40% 2.7 mph E4.3 kmh E 6.8 mph10.9 kmh 30.18 in1022.0 mb 0.00 in0.0 mm 0.00 in0.0 mm 0.00 in0.0 mm
10:20 AM 72.3°F22.4°C 46.8°F8.2°C 40% 1.4 mph E2.3 kmh E 4.0 mph6.4 kmh 30.18 in1022.0 mb 0.00 in0.0 mm 0.00 in0.0 mm 0.00 in0.0 mm
10:15 AM 71.9°F22.2°C 46.3°F7.9°C 40% 1.8 mph SE2.9 kmh SE 6.2 mph10.0 kmh 30.18 in1022.0 mb 0.00 in0.0 mm 0.00 in0.0 mm 0.00 in0.0 mm
10:10 AM 71.7°F22.1°C 46.3°F7.9°C 40% 2.3 mph E3.7 kmh E 6.9 mph11.1 kmh 30.18 in1022.0 mb 0.00 in0.0 mm 0.00 in0.0 mm 0.00 in0.0 mm
10:05 AM 71.5°F21.9°C 46.3°F7.9°C 41% 1.4 mph NE2.3 kmh NE 3.6 mph5.8 kmh 30.18 in1022.0 mb 0.00 in0.0 mm 0.00 in0.0 mm 0.00 in0.0 mm
10:00 AM 71.2°F21.8°C 46.3°F7.9°C 41% 2.1 mph NW3.4 kmh NW 7.0 mph11.3 kmh 30.18 in1022.0 mb 0.00 in0.0 mm 0.00 in0.0 mm 0.00 in0.0 mm
09:55 AM 70.9°F21.6°C 46.0°F7.8°C 41% 1.1 mph E1.8 kmh E 3.5 mph5.6 kmh 30.19 in1022.4 mb 0.00 in0.0 mm 0.00 in0.0 mm 0.00 in0.0 mm
09:50 AM 70.6°F21.4°C 45.9°F7.7°C 41% 0.8 mph NE1.3 kmh NE 3.8 mph6.1 kmh 30.19 in1022.4 mb 0.00 in0.0 mm 0.00 in0.0 mm 0.00 in0.0 mm
09:45 AM 70.2°F21.2°C 45.6°F7.6°C 41% 1.5 mph ESE2.4 kmh ESE 3.2 mph5.1 kmh 30.19 in1022.4 mb 0.00 in0.0 mm 0.00 in0.0 mm 0.00 in0.0 mm
09:40 AM 69.8°F21.0°C 45.5°F7.5°C 42% 1.4 mph ENE2.3 kmh ENE 3.7 mph6.0 kmh 30.19 in1022.4 mb 0.00 in0.0 mm 0.00 in0.0 mm 0.00 in0.0 mm
09:35 AM 69.4°F20.8°C 45.8°F7.7°C 43% 0.5 mph ESE0.8 kmh ESE 2.4 mph3.9 kmh 30.20 in1022.7 mb 0.00 in0.0 mm 0.00 in0.0 mm 0.00 in0.0 mm
09:30 AM 69.0°F20.6°C 46.2°F7.9°C 44% 0.8 mph E1.3 kmh E 3.0 mph4.8 kmh 30.20 in1022.7 mb 0.00 in0.0 mm 0.00 in0.0 mm 0.00 in0.0 mm
09:25 AM 68.5°F20.3°C 46.5°F8.1°C 45% 0.8 mph SE1.3 kmh SE 3.3 mph5.3 kmh 30.20 in1022.7 mb 0.00 in0.0 mm 0.00 in0.0 mm 0.00 in0.0 mm
09:20 AM 67.9°F19.9°C 46.7°F8.2°C 47% 0.4 mph SE0.6 kmh SE 2.2 mph3.5 kmh 30.20 in1022.7 mb 0.00 in0.0 mm 0.00 in0.0 mm 0.00 in0.0 mm
09:15 AM 67.4°F19.7°C 46.5°F8.1°C 47% 0.3 mph SW0.5 kmh SW 1.8 mph2.9 kmh 30.21 in1023.0 mb 0.00 in0.0 mm 0.00 in0.0 mm 0.00 in0.0 mm
09:10 AM 66.9°F19.4°C 46.1°F7.8°C 47% 0.4 mph NNW0.6 kmh NNW 1.6 mph2.6 kmh 30.21 in1023.0 mb 0.00 in0.0 mm 0.00 in0.0 mm 0.00 in0.0 mm
09:05 AM 66.5°F19.2°C 46.8°F8.2°C 49% 0.2 mph NE0.3 kmh NE 1.7 mph2.7 kmh 30.21 in1023.0 mb 0.00 in0.0 mm 0.00 in0.0 mm 0.00 in0.0 mm
09:00 AM 65.9°F18.8°C 46.5°F8.1°C 50% 0.3 mph NE0.5 kmh NE 2.4 mph3.9 kmh 30.21 in1023.0 mb 0.00 in0.0 mm 0.00 in0.0 mm 0.00 in0.0 mm
08:55 AM 65.3°F18.5°C 45.9°F7.7°C 49% 0.1 mph E0.2 kmh E 1.8 mph2.9 kmh 30.22 in1023.4 mb 0.00 in0.0 mm 0.00 in0.0 mm 0.00 in0.0 mm
08:50 AM 64.8°F18.2°C 46.2°F7.9°C 51% 0.6 mph NNW1.0 kmh NNW 2.3 mph3.7 kmh 30.22 in1023.4 mb 0.00 in0.0 mm 0.00 in0.0 mm 0.00 in0.0 mm
08:45 AM 63.9°F17.7°C 45.7°F7.6°C 52% 0.4 mph NW0.6 kmh NW 2.9 mph4.7 kmh 30.23 in1023.7 mb 0.00 in0.0 mm 0.00 in0.0 mm 0.00 in0.0 mm
08:40 AM 63.2°F17.3°C 46.1°F7.8°C 54% 0.4 mph NNW0.6 kmh NNW 3.0 mph4.8 kmh 30.23 in1023.7 mb 0.00 in0.0 mm 0.00 in0.0 mm 0.00 in0.0 mm
08:35 AM 62.4°F16.9°C 46.4°F8.0°C 56% 0.8 mph NW1.3 kmh NW 1.9 mph3.1 kmh 30.23 in1023.7 mb 0.00 in0.0 mm 0.00 in0.0 mm 0.00 in0.0 mm
08:30 AM 61.4°F16.3°C 45.7°F7.6°C 56% 0.4 mph W0.6 kmh W 3.3 mph5.3 kmh 30.24 in1024.0 mb 0.00 in0.0 mm 0.00 in0.0 mm 0.00 in0.0 mm
08:25 AM 60.9°F16.1°C 45.7°F7.6°C 57% 0.3 mph W0.5 kmh W 1.1 mph1.8 kmh 30.24 in1024.0 mb 0.00 in0.0 mm 0.00 in0.0 mm 0.00 in0.0 mm
08:20 AM 60.4°F15.8°C 45.5°F7.5°C 58% 0.6 mph WSW1.0 kmh WSW 2.1 mph3.4 kmh 30.24 in1024.0 mb 0.00 in0.0 mm 0.00 in0.0 mm 0.00 in0.0 mm
08:15 AM 60.0°F15.6°C 45.1°F7.3°C 58% 0.7 mph WSW1.1 kmh WSW 4.0 mph6.4 kmh 30.24 in1024.0 mb 0.00 in0.0 mm 0.00 in0.0 mm 0.00 in0.0 mm
08:10 AM 59.5°F15.3°C 44.7°F7.1°C 58% 0.5 mph WSW0.8 kmh WSW 3.3 mph5.3 kmh 30.24 in1024.0 mb 0.00 in0.0 mm 0.00 in0.0 mm 0.00 in0.0 mm
08:05 AM 59.2°F15.1°C 44.4°F6.9°C 58% 0.4 mph WSW0.6 kmh WSW 2.8 mph4.5 kmh 30.25 in1024.4 mb 0.00 in0.0 mm 0.00 in0.0 mm 0.00 in0.0 mm
08:00 AM 58.9°F14.9°C 44.2°F6.8°C 58% 0.4 mph WSW0.6 kmh WSW 2.7 mph4.3 kmh 30.25 in1024.4 mb 0.00 in0.0 mm 0.00 in0.0 mm 0.00 in0.0 mm
07:55 AM 58.7°F14.8°C 43.9°F6.6°C 58% 0.7 mph SW1.1 kmh SW 3.5 mph5.6 kmh 30.25 in1024.4 mb 0.00 in0.0 mm 0.00 in0.0 mm 0.00 in0.0 mm
07:50 AM 58.2°F14.6°C 43.5°F6.4°C 58% 0.3 mph W0.5 kmh W 2.1 mph3.4 kmh 30.25 in1024.4 mb 0.00 in0.0 mm 0.00 in0.0 mm 0.00 in0.0 mm
07:45 AM 57.7°F14.3°C 43.3°F6.3°C 59% 0.6 mph W1.0 kmh W 3.0 mph4.8 kmh 30.25 in1024.4 mb 0.00 in0.0 mm 0.00 in0.0 mm 0.00 in0.0 mm
07:40 AM 57.5°F14.2°C 42.9°F6.1°C 58% 1.0 mph WSW1.6 kmh WSW 2.9 mph4.7 kmh 30.25 in1024.4 mb 0.00 in0.0 mm 0.00 in0.0 mm 0.00 in0.0 mm
07:35 AM 57.3°F14.1°C 43.1°F6.2°C 59% 0.8 mph WSW1.3 kmh WSW 2.3 mph3.7 kmh 30.25 in1024.4 mb 0.00 in0.0 mm 0.00 in0.0 mm 0.00 in0.0 mm
07:30 AM 57.3°F14.1°C 43.1°F6.2°C 59% 0.8 mph W1.3 kmh W 1.5 mph2.4 kmh 30.25 in1024.4 mb 0.00 in0.0 mm 0.00 in0.0 mm 0.00 in0.0 mm
07:25 AM 57.2°F14.0°C 43.0°F6.1°C 59% 0.8 mph W1.3 kmh W 1.8 mph2.9 kmh 30.25 in1024.4 mb 0.00 in0.0 mm 0.00 in0.0 mm 0.00 in0.0 mm
07:20 AM 57.1°F13.9°C 42.9°F6.1°C 59% 1.1 mph WSW1.8 kmh WSW 2.4 mph3.9 kmh 30.26 in1024.7 mb 0.00 in0.0 mm 0.00 in0.0 mm 0.00 in0.0 mm
07:15 AM 56.9°F13.8°C 42.8°F6.0°C 59% 1.4 mph WSW2.3 kmh WSW 2.8 mph4.5 kmh 30.26 in1024.7 mb 0.00 in0.0 mm 0.00 in0.0 mm 0.00 in0.0 mm
07:10 AM 56.8°F13.8°C 43.0°F6.1°C 60% 1.5 mph WSW2.4 kmh WSW 3.0 mph4.8 kmh 30.26 in1024.7 mb 0.00 in0.0 mm 0.00 in0.0 mm 0.00 in0.0 mm
07:05 AM 56.7°F13.7°C 43.0°F6.1°C 60% 1.4 mph WSW2.3 kmh WSW 3.7 mph6.0 kmh 30.26 in1024.7 mb 0.00 in0.0 mm 0.00 in0.0 mm 0.00 in0.0 mm
07:00 AM 56.8°F13.8°C 42.6°F5.9°C 59% 0.9 mph W1.4 kmh W 2.5 mph4.0 kmh 30.26 in1024.7 mb 0.00 in0.0 mm 0.00 in0.0 mm 0.00 in0.0 mm
06:55 AM 56.8°F13.8°C 42.7°F5.9°C 59% 0.6 mph W1.0 kmh W 1.9 mph3.1 kmh 30.26 in1024.7 mb 0.00 in0.0 mm 0.00 in0.0 mm 0.00 in0.0 mm
06:50 AM 56.8°F13.8°C 42.6°F5.9°C 59% 0.5 mph WSW0.8 kmh WSW 2.0 mph3.2 kmh 30.26 in1024.7 mb 0.00 in0.0 mm 0.00 in0.0 mm 0.00 in0.0 mm
06:45 AM 56.8°F13.8°C 42.6°F5.9°C 59% 0.8 mph W1.3 kmh W 2.0 mph3.2 kmh 30.26 in1024.7 mb 0.00 in0.0 mm 0.00 in0.0 mm 0.00 in0.0 mm
06:40 AM 56.8°F13.8°C 42.6°F5.9°C 59% 0.8 mph WSW1.3 kmh WSW 2.1 mph3.4 kmh 30.26 in1024.7 mb 0.00 in0.0 mm 0.00 in0.0 mm 0.00 in0.0 mm
06:35 AM 56.6°F13.7°C 42.4°F5.8°C 59% 1.0 mph WSW1.6 kmh WSW 2.9 mph4.7 kmh 30.26 in1024.7 mb 0.00 in0.0 mm 0.00 in0.0 mm 0.00 in0.0 mm
06:30 AM 56.5°F13.6°C 42.4°F5.8°C 59% 1.0 mph W1.6 kmh W 2.2 mph3.5 kmh 30.26 in1024.7 mb 0.00 in0.0 mm 0.00 in0.0 mm 0.00 in0.0 mm
06:25 AM 56.5°F13.6°C 42.4°F5.8°C 59% 1.1 mph WSW1.8 kmh WSW 3.0 mph4.8 kmh 30.26 in1024.7 mb 0.00 in0.0 mm 0.00 in0.0 mm 0.00 in0.0 mm
06:20 AM 56.5°F13.6°C 42.4°F5.8°C 59% 0.8 mph W1.3 kmh W 1.9 mph3.1 kmh 30.26 in1024.7 mb 0.00 in0.0 mm 0.00 in0.0 mm 0.00 in0.0 mm
06:15 AM 56.5°F13.6°C 42.4°F5.8°C 59% 0.7 mph W1.1 kmh W 2.1 mph3.4 kmh 30.26 in1024.7 mb 0.00 in0.0 mm 0.00 in0.0 mm 0.00 in0.0 mm
06:10 AM 56.5°F13.6°C 42.3°F5.7°C 59% 0.9 mph W1.4 kmh W 2.9 mph4.7 kmh 30.26 in1024.7 mb 0.00 in0.0 mm 0.00 in0.0 mm 0.00 in0.0 mm
06:05 AM 56.4°F13.6°C 42.3°F5.7°C 59% 0.9 mph W1.4 kmh W 2.2 mph3.5 kmh 30.26 in1024.7 mb 0.00 in0.0 mm 0.00 in0.0 mm 0.00 in0.0 mm
06:00 AM 56.4°F13.6°C 42.3°F5.7°C 59% 0.7 mph W1.1 kmh W 2.0 mph3.2 kmh 30.26 in1024.7 mb 0.00 in0.0 mm 0.00 in0.0 mm 0.00 in0.0 mm
05:55 AM 56.5°F13.6°C 42.3°F5.7°C 59% 0.8 mph WSW1.3 kmh WSW 2.7 mph4.3 kmh 30.26 in1024.7 mb 0.00 in0.0 mm 0.00 in0.0 mm 0.00 in0.0 mm
05:50 AM 56.4°F13.6°C 42.3°F5.7°C 59% 1.2 mph WSW1.9 kmh WSW 2.9 mph4.7 kmh 30.26 in1024.7 mb 0.00 in0.0 mm 0.00 in0.0 mm 0.00 in0.0 mm
05:45 AM 56.4°F13.6°C 42.2°F5.7°C 59% 0.9 mph WSW1.4 kmh WSW 2.4 mph3.9 kmh 30.26 in1024.7 mb 0.00 in0.0 mm 0.00 in0.0 mm 0.00 in0.0 mm
05:40 AM 56.4°F13.6°C 42.4°F5.8°C 59% 1.1 mph WSW1.8 kmh WSW 3.4 mph5.5 kmh 30.26 in1024.7 mb 0.00 in0.0 mm 0.00 in0.0 mm 0.00 in0.0 mm
05:35 AM 56.4°F13.6°C 42.3°F5.7°C 59% 0.9 mph W1.4 kmh W 2.3 mph3.7 kmh 30.26 in1024.7 mb 0.00 in0.0 mm 0.00 in0.0 mm 0.00 in0.0 mm
05:30 AM 56.3°F13.5°C 42.3°F5.7°C 59% 1.2 mph W1.9 kmh W 2.8 mph4.5 kmh 30.26 in1024.7 mb 0.00 in0.0 mm 0.00 in0.0 mm 0.00 in0.0 mm
05:25 AM 56.3°F13.5°C 42.6°F5.9°C 60% 0.9 mph W1.4 kmh W 2.3 mph3.7 kmh 30.26 in1024.7 mb 0.00 in0.0 mm 0.00 in0.0 mm 0.00 in0.0 mm
05:20 AM 56.1°F13.4°C 42.4°F5.8°C 60% 1.1 mph W1.8 kmh W 3.2 mph5.1 kmh 30.26 in1024.7 mb 0.00 in0.0 mm 0.00 in0.0 mm 0.00 in0.0 mm
05:15 AM 56.0°F13.3°C 42.3°F5.7°C 60% 1.0 mph W1.6 kmh W 2.0 mph3.2 kmh 30.26 in1024.7 mb 0.00 in0.0 mm 0.00 in0.0 mm 0.00 in0.0 mm
05:10 AM 56.0°F13.3°C 42.3°F5.7°C 60% 0.9 mph W1.4 kmh W 2.0 mph3.2 kmh 30.26 in1024.7 mb 0.00 in0.0 mm 0.00 in0.0 mm 0.00 in0.0 mm
05:05 AM 56.1°F13.4°C 42.4°F5.8°C 60% 0.9 mph W1.4 kmh W 2.3 mph3.7 kmh 30.26 in1024.7 mb 0.00 in0.0 mm 0.00 in0.0 mm 0.00 in0.0 mm
05:00 AM 56.1°F13.4°C 42.4°F5.8°C 60% 1.0 mph W1.6 kmh W 2.2 mph3.5 kmh 30.26 in1024.7 mb 0.00 in0.0 mm 0.00 in0.0 mm 0.00 in0.0 mm
04:55 AM 56.3°F13.5°C 42.6°F5.9°C 60% 1.0 mph W1.6 kmh W 2.4 mph3.9 kmh 30.26 in1024.7 mb 0.00 in0.0 mm 0.00 in0.0 mm 0.00 in0.0 mm
04:50 AM 56.4°F13.6°C 42.7°F5.9°C 60% 1.1 mph W1.8 kmh W 1.9 mph3.1 kmh 30.26 in1024.7 mb 0.00 in0.0 mm 0.00 in0.0 mm 0.00 in0.0 mm
04:45 AM 56.5°F13.6°C 42.8°F6.0°C 60% 1.2 mph W1.9 kmh W 2.1 mph3.4 kmh 30.26 in1024.7 mb 0.00 in0.0 mm 0.00 in0.0 mm 0.00 in0.0 mm
04:40 AM 56.6°F13.7°C 42.8°F6.0°C 60% 1.1 mph W1.8 kmh W 1.9 mph3.1 kmh 30.26 in1024.7 mb 0.00 in0.0 mm 0.00 in0.0 mm 0.00 in0.0 mm
04:35 AM 56.6°F13.7°C 42.8°F6.0°C 60% 0.8 mph W1.3 kmh W 1.7 mph2.7 kmh 30.26 in1024.7 mb 0.00 in0.0 mm 0.00 in0.0 mm 0.00 in0.0 mm
04:30 AM 56.7°F13.7°C 42.5°F5.8°C 59% 0.9 mph W1.4 kmh W 2.9 mph4.7 kmh 30.26 in1024.7 mb 0.00 in0.0 mm 0.00 in0.0 mm 0.00 in0.0 mm
04:25 AM 56.7°F13.7°C 43.0°F6.1°C 60% 0.9 mph W1.4 kmh W 3.1 mph5.0 kmh 30.26 in1024.7 mb 0.00 in0.0 mm 0.00 in0.0 mm 0.00 in0.0 mm
04:20 AM 56.8°F13.8°C 42.6°F5.9°C 59% 0.7 mph W1.1 kmh W 1.9 mph3.1 kmh 30.26 in1024.7 mb 0.00 in0.0 mm 0.00 in0.0 mm 0.00 in0.0 mm
04:15 AM 56.9°F13.8°C 42.9°F6.1°C 59% 0.8 mph W1.3 kmh W 2.0 mph3.2 kmh 30.26 in1024.7 mb 0.00 in0.0 mm 0.00 in0.0 mm 0.00 in0.0 mm
04:10 AM 56.9°F13.8°C 42.7°F5.9°C 59% 1.0 mph W1.6 kmh W 2.3 mph3.7 kmh 30.26 in1024.7 mb 0.00 in0.0 mm 0.00 in0.0 mm 0.00 in0.0 mm
04:05 AM 56.9°F13.8°C 42.7°F5.9°C 59% 0.7 mph W1.1 kmh W 1.7 mph2.7 kmh 30.26 in1024.7 mb 0.00 in0.0 mm 0.00 in0.0 mm 0.00 in0.0 mm
04:00 AM 56.8°F13.8°C 42.6°F5.9°C 59% 1.2 mph WSW1.9 kmh WSW 4.0 mph6.4 kmh 30.26 in1024.7 mb 0.00 in0.0 mm 0.00 in0.0 mm 0.00 in0.0 mm
03:55 AM 56.7°F13.7°C 42.7°F5.9°C 59% 1.0 mph W1.6 kmh W 2.3 mph3.7 kmh 30.26 in1024.7 mb 0.00 in0.0 mm 0.00 in0.0 mm 0.00 in0.0 mm
03:50 AM 56.8°F13.8°C 42.9°F6.1°C 60% 0.9 mph W1.4 kmh W 1.9 mph3.1 kmh 30.26 in1024.7 mb 0.00 in0.0 mm 0.00 in0.0 mm 0.00 in0.0 mm
03:45 AM 56.9°F13.8°C 42.8°F6.0°C 59% 0.7 mph W1.1 kmh W 2.0 mph3.2 kmh 30.26 in1024.7 mb 0.00 in0.0 mm 0.00 in0.0 mm 0.00 in0.0 mm
03:40 AM 56.9°F13.8°C 42.7°F5.9°C 59% 0.5 mph W0.8 kmh W 1.6 mph2.6 kmh 30.26 in1024.7 mb 0.00 in0.0 mm 0.00 in0.0 mm 0.00 in0.0 mm
03:35 AM 57.0°F13.9°C 42.8°F6.0°C 59% 1.1 mph WSW1.8 kmh WSW 2.2 mph3.5 kmh 30.26 in1024.7 mb 0.00 in0.0 mm 0.00 in0.0 mm 0.00 in0.0 mm
03:30 AM 56.9°F13.8°C 42.7°F5.9°C 59% 0.7 mph W1.1 kmh W 2.1 mph3.4 kmh 30.26 in1024.7 mb 0.00 in0.0 mm 0.00 in0.0 mm 0.00 in0.0 mm
03:25 AM 56.9°F13.8°C 42.7°F5.9°C 59% 0.8 mph W1.3 kmh W 2.3 mph3.7 kmh 30.26 in1024.7 mb 0.00 in0.0 mm 0.00 in0.0 mm 0.00 in0.0 mm
03:20 AM 57.0°F13.9°C 42.8°F6.0°C 59% 1.0 mph WSW1.6 kmh WSW 2.8 mph4.5 kmh 30.26 in1024.7 mb 0.00 in0.0 mm 0.00 in0.0 mm 0.00 in0.0 mm
03:15 AM 57.1°F13.9°C 42.9°F6.1°C 59% 0.3 mph W0.5 kmh W 1.6 mph2.6 kmh 30.26 in1024.7 mb 0.00 in0.0 mm 0.00 in0.0 mm 0.00 in0.0 mm
03:10 AM 57.1°F13.9°C 42.9°F6.1°C 59% 0.8 mph W1.3 kmh W 2.4 mph3.9 kmh 30.26 in1024.7 mb 0.00 in0.0 mm 0.00 in0.0 mm 0.00 in0.0 mm
03:05 AM 57.0°F13.9°C 42.8°F6.0°C 59% 0.7 mph W1.1 kmh W 2.6 mph4.2 kmh 30.27 in1025.1 mb 0.00 in0.0 mm 0.00 in0.0 mm 0.00 in0.0 mm
03:00 AM 57.0°F13.9°C 42.8°F6.0°C 59% 0.8 mph WSW1.3 kmh WSW 2.0 mph3.2 kmh 30.27 in1025.1 mb 0.00 in0.0 mm 0.00 in0.0 mm 0.00 in0.0 mm
02:55 AM 56.9°F13.8°C 42.8°F6.0°C 59% 1.0 mph WSW1.6 kmh WSW 1.9 mph3.1 kmh 30.27 in1025.1 mb 0.00 in0.0 mm 0.00 in0.0 mm 0.00 in0.0 mm
02:50 AM 57.0°F13.9°C 42.9°F6.1°C 59% 0.9 mph WSW1.4 kmh WSW 1.8 mph2.9 kmh 30.27 in1025.1 mb 0.00 in0.0 mm 0.00 in0.0 mm 0.00 in0.0 mm
02:45 AM 57.1°F13.9°C 42.9°F6.1°C 59% 0.8 mph WSW1.3 kmh WSW 2.4 mph3.9 kmh 30.27 in1025.1 mb 0.00 in0.0 mm 0.00 in0.0 mm 0.00 in0.0 mm
02:40 AM 57.1°F13.9°C 42.9°F6.1°C 59% 0.9 mph W1.4 kmh W 3.2 mph5.1 kmh 30.27 in1025.1 mb 0.00 in0.0 mm 0.00 in0.0 mm 0.00 in0.0 mm
02:35 AM 57.1°F13.9°C 42.9°F6.1°C 59% 0.6 mph W1.0 kmh W 1.4 mph2.3 kmh 30.27 in1025.1 mb 0.00 in0.0 mm 0.00 in0.0 mm 0.00 in0.0 mm
02:30 AM 57.2°F14.0°C 43.0°F6.1°C 59% 0.5 mph WSW0.8 kmh WSW 1.6 mph2.6 kmh 30.27 in1025.1 mb 0.00 in0.0 mm 0.00 in0.0 mm 0.00 in0.0 mm
02:25 AM 57.2°F14.0°C 43.0°F6.1°C 59% 0.7 mph W1.1 kmh W 2.3 mph3.7 kmh 30.27 in1025.1 mb 0.00 in0.0 mm 0.00 in0.0 mm 0.00 in0.0 mm
02:20 AM 57.3°F14.1°C 43.0°F6.1°C 59% 0.5 mph W0.8 kmh W 1.6 mph2.6 kmh 30.28 in1025.4 mb 0.00 in0.0 mm 0.00 in0.0 mm 0.00 in0.0 mm
02:15 AM 57.4°F14.1°C 42.8°F6.0°C 58% 0.5 mph WSW0.8 kmh WSW 1.8 mph2.9 kmh 30.28 in1025.4 mb 0.00 in0.0 mm 0.00 in0.0 mm 0.00 in0.0 mm
02:10 AM 57.4°F14.1°C 42.8°F6.0°C 58% 0.7 mph WSW1.1 kmh WSW 1.8 mph2.9 kmh 30.28 in1025.4 mb 0.00 in0.0 mm 0.00 in0.0 mm 0.00 in0.0 mm
02:05 AM 57.4°F14.1°C 43.2°F6.2°C 59% 0.7 mph WSW1.1 kmh WSW 1.9 mph3.1 kmh 30.28 in1025.4 mb 0.00 in0.0 mm 0.00 in0.0 mm 0.00 in0.0 mm
02:00 AM 57.5°F14.2°C 43.0°F6.1°C 58% 0.7 mph WSW1.1 kmh WSW 3.0 mph4.8 kmh 30.28 in1025.4 mb 0.00 in0.0 mm 0.00 in0.0 mm 0.00 in0.0 mm
01:55 AM 57.6°F14.2°C 42.9°F6.1°C 58% 0.8 mph WSW1.3 kmh WSW 2.4 mph3.9 kmh 30.28 in1025.4 mb 0.00 in0.0 mm 0.00 in0.0 mm 0.00 in0.0 mm
01:50 AM 57.7°F14.3°C 43.1°F6.2°C 58% 0.8 mph W1.3 kmh W 1.8 mph2.9 kmh 30.28 in1025.4 mb 0.00 in0.0 mm 0.00 in0.0 mm 0.00 in0.0 mm
01:45 AM 57.8°F14.3°C 43.2°F6.2°C 58% 1.1 mph WSW1.8 kmh WSW 2.6 mph4.2 kmh 30.28 in1025.4 mb 0.00 in0.0 mm 0.00 in0.0 mm 0.00 in0.0 mm
01:40 AM 57.9°F14.4°C 43.6°F6.4°C 59% 0.9 mph WSW1.4 kmh WSW 2.0 mph3.2 kmh 30.28 in1025.4 mb 0.00 in0.0 mm 0.00 in0.0 mm 0.00 in0.0 mm
01:35 AM 57.9°F14.4°C 43.8°F6.6°C 59% 0.5 mph W0.8 kmh W 1.4 mph2.3 kmh 30.28 in1025.4 mb 0.00 in0.0 mm 0.00 in0.0 mm 0.00 in0.0 mm
01:30 AM 57.8°F14.3°C 43.7°F6.5°C 59% 1.0 mph WSW1.6 kmh WSW 2.5 mph4.0 kmh 30.28 in1025.4 mb 0.00 in0.0 mm 0.00 in0.0 mm 0.00 in0.0 mm
01:25 AM 57.7°F14.3°C 43.9°F6.6°C 60% 0.8 mph W1.3 kmh W 2.2 mph3.5 kmh 30.28 in1025.4 mb 0.00 in0.0 mm 0.00 in0.0 mm 0.00 in0.0 mm
01:20 AM 57.8°F14.3°C 44.0°F6.7°C 60% 0.6 mph W1.0 kmh W 2.1 mph3.4 kmh 30.28 in1025.4 mb 0.00 in0.0 mm 0.00 in0.0 mm 0.00 in0.0 mm
01:15 AM 58.0°F14.4°C 44.2°F6.8°C 60% 0.4 mph W0.6 kmh W 1.5 mph2.4 kmh 30.28 in1025.4 mb 0.00 in0.0 mm 0.00 in0.0 mm 0.00 in0.0 mm
01:10 AM 58.2°F14.6°C 44.4°F6.9°C 60% 0.6 mph W1.0 kmh W 1.8 mph2.9 kmh 30.28 in1025.4 mb 0.00 in0.0 mm 0.00 in0.0 mm 0.00 in0.0 mm
01:05 AM 58.2°F14.6°C 44.4°F6.9°C 60% 0.9 mph WSW1.4 kmh WSW 2.0 mph3.2 kmh 30.28 in1025.4 mb 0.00 in0.0 mm 0.00 in0.0 mm 0.00 in0.0 mm
01:00 AM 58.3°F14.6°C 44.5°F6.9°C 60% 0.7 mph WSW1.1 kmh WSW 1.9 mph3.1 kmh 30.28 in1025.4 mb 0.00 in0.0 mm 0.00 in0.0 mm 0.00 in0.0 mm
12:55 AM 58.5°F14.7°C 44.6°F7.0°C 60% 0.9 mph WSW1.4 kmh WSW 1.9 mph3.1 kmh 30.28 in1025.4 mb 0.00 in0.0 mm 0.00 in0.0 mm 0.00 in0.0 mm
12:50 AM 58.6°F14.8°C 44.8°F7.1°C 60% 0.7 mph WSW1.1 kmh WSW 1.6 mph2.6 kmh 30.28 in1025.4 mb 0.00 in0.0 mm 0.00 in0.0 mm 0.00 in0.0 mm
12:45 AM 58.7°F14.8°C 44.9°F7.2°C 60% 0.9 mph WSW1.4 kmh WSW 2.5 mph4.0 kmh 30.28 in1025.4 mb 0.00 in0.0 mm 0.00 in0.0 mm 0.00 in0.0 mm
12:40 AM 58.8°F14.9°C 45.0°F7.2°C 60% 0.6 mph WSW1.0 kmh WSW 1.7 mph2.7 kmh 30.28 in1025.4 mb 0.00 in0.0 mm 0.00 in0.0 mm 0.00 in0.0 mm
12:35 AM 58.8°F14.9°C 45.0°F7.2°C 60% 0.8 mph WSW1.3 kmh WSW 2.8 mph4.5 kmh 30.28 in1025.4 mb 0.00 in0.0 mm 0.00 in0.0 mm 0.00 in0.0 mm
12:30 AM 58.9°F14.9°C 45.0°F7.2°C 60% 0.8 mph W1.3 kmh W 1.7 mph2.7 kmh 30.28 in1025.4 mb 0.00 in0.0 mm 0.00 in0.0 mm 0.00 in0.0 mm
12:25 AM 59.0°F15.0°C 45.2°F7.3°C 60% 0.3 mph W0.5 kmh W 1.3 mph2.1 kmh 30.27 in1025.1 mb 0.00 in0.0 mm 0.00 in0.0 mm 0.00 in0.0 mm
12:20 AM 59.2°F15.1°C 45.3°F7.4°C 60% 0.6 mph WSW1.0 kmh WSW 2.0 mph3.2 kmh 30.27 in1025.1 mb 0.00 in0.0 mm 0.00 in0.0 mm 0.00 in0.0 mm
12:15 AM 59.3°F15.2°C 45.0°F7.2°C 59% 0.4 mph WSW0.6 kmh WSW 1.9 mph3.1 kmh 30.27 in1025.1 mb 0.00 in0.0 mm 0.00 in0.0 mm 0.00 in0.0 mm
12:10 AM 59.2°F15.1°C 45.1°F7.3°C 59% 0.4 mph W0.6 kmh W 1.6 mph2.6 kmh 30.27 in1025.1 mb 0.00 in0.0 mm 0.00 in0.0 mm 0.00 in0.0 mm
12:05 AM 59.2°F15.1°C 45.3°F7.4°C 60% 0.6 mph W1.0 kmh W 1.9 mph3.1 kmh 30.27 in1025.1 mb 0.00 in0.0 mm 0.00 in0.0 mm 0.00 in0.0 mm
12:00 AM 59.2°F15.1°C 45.3°F7.4°C 60% 0.8 mph WSW1.3 kmh WSW 3.1 mph5.0 kmh 30.27 in1025.1 mb 0.00 in0.0 mm 0.00 in0.0 mm 0.00 in0.0 mm